createdAt,value
2023-02-27T00:02:04.206Z,28.53
2023-02-27T00:04:31.529Z,27.63
2023-02-27T00:06:58.751Z,34.60
2023-02-27T00:09:26.136Z,29.57
2023-02-27T00:11:53.384Z,32.20
2023-02-27T00:14:20.797Z,35.27
2023-02-27T00:16:48.192Z,36.80
2023-02-27T00:19:15.449Z,30.33
2023-02-27T00:21:44.729Z,37.67
2023-02-27T00:24:11.962Z,33.70
2023-02-27T00:26:39.160Z,35.40
2023-02-27T00:29:07.291Z,36.87
2023-02-27T00:31:34.838Z,33.20
2023-02-27T00:34:02.167Z,31.93
2023-02-27T00:36:29.453Z,34.30
2023-02-27T00:38:58.117Z,34.33
2023-02-27T00:41:26.366Z,32.63
2023-02-27T00:43:53.904Z,34.77
2023-02-27T00:46:21.147Z,38.60
2023-02-27T00:48:48.502Z,38.17
2023-02-27T00:51:16.024Z,40.27
2023-02-27T00:53:43.213Z,43.17
2023-02-27T00:56:12.521Z,39.10
2023-02-27T00:58:39.876Z,36.33
2023-02-27T01:01:07.167Z,36.30
2023-02-27T01:03:34.431Z,34.23
2023-02-27T01:06:01.921Z,37.50
2023-02-27T01:08:29.317Z,41.00
2023-02-27T01:10:57.173Z,43.60
2023-02-27T01:13:24.426Z,39.13
2023-02-27T01:15:53.156Z,30.80
2023-02-27T01:18:20.371Z,35.50
2023-02-27T01:20:55.765Z,35.70
2023-02-27T01:23:23.833Z,46.60
2023-02-27T01:25:51.100Z,36.63
2023-02-27T01:28:18.531Z,37.83
2023-02-27T01:30:45.865Z,38.23
2023-02-27T01:33:15.545Z,49.40
2023-02-27T01:35:42.759Z,31.70
2023-02-27T01:38:09.995Z,36.97
2023-02-27T01:40:42.528Z,38.33
2023-02-27T01:43:20.023Z,34.00
2023-02-27T01:45:49.007Z,29.33
2023-02-27T01:48:29.102Z,30.33
2023-02-27T01:51:13.889Z,32.58
2023-02-27T01:53:45.846Z,28.33
2023-02-27T01:56:32.351Z,37.92
2023-02-27T01:59:07.722Z,34.87
2023-02-27T02:01:36.159Z,30.63
2023-02-27T02:04:28.243Z,31.07
2023-02-27T02:07:06.135Z,27.50
2023-02-27T02:09:40.467Z,24.20
2023-02-27T02:12:08.584Z,20.93
2023-02-27T02:14:35.856Z,26.33
2023-02-27T02:17:32.664Z,22.87
2023-02-27T02:20:35.144Z,34.90
2023-02-27T02:23:11.462Z,26.23
2023-02-27T02:26:29.272Z,26.40
2023-02-27T02:29:59.845Z,23.43
2023-02-27T02:33:15.355Z,21.55
2023-02-27T02:36:32.354Z,23.17
2023-02-27T02:39:33.401Z,17.33
2023-02-27T02:42:37.429Z,20.90
2023-02-27T02:45:48.576Z,18.00
2023-02-27T02:48:40.759Z,16.30
2023-02-27T02:51:30.632Z,18.50
2023-02-27T02:54:20.328Z,17.10
2023-02-27T02:57:02.365Z,14.33
2023-02-27T02:59:40.165Z,22.27
2023-02-27T03:02:17.103Z,19.73
2023-02-27T03:04:54.063Z,13.93
2023-02-27T03:07:43.292Z,15.13
2023-02-27T03:10:21.356Z,13.83
2023-02-27T03:13:14.408Z,14.70
2023-02-27T03:15:54.648Z,15.30
2023-02-27T03:18:35.015Z,15.38
2023-02-27T03:21:10.653Z,10.90
2023-02-27T03:23:48.028Z,12.73
2023-02-27T03:26:21.901Z,17.67
2023-02-27T03:29:06.644Z,13.73
2023-02-27T03:31:58.552Z,11.50
2023-02-27T03:34:38.167Z,11.13
2023-02-27T03:37:35.657Z,9.03
2023-02-27T03:40:33.500Z,9.60
2023-02-27T03:43:27.280Z,13.40
2023-02-27T03:46:16.766Z,12.07
2023-02-27T03:48:46.541Z,11.10
2023-02-27T03:51:21.073Z,13.03
2023-02-27T03:53:57.395Z,10.03
2023-02-27T03:56:32.753Z,15.70
2023-02-27T03:59:00.319Z,7.90
2023-02-27T04:01:28.344Z,8.63
2023-02-27T04:04:17.272Z,8.33
2023-02-27T04:07:53.101Z,8.67
2023-02-27T04:11:09.196Z,8.20
2023-02-27T04:13:54.416Z,8.60
2023-02-27T04:17:02.898Z,10.27
2023-02-27T04:19:41.975Z,8.30
2023-02-27T04:22:18.291Z,9.30
2023-02-27T04:24:53.800Z,9.53
2023-02-27T04:27:42.734Z,14.23
2023-02-27T04:30:30.267Z,7.33
2023-02-27T04:33:42.235Z,6.97
2023-02-27T04:36:40.593Z,5.67
2023-02-27T04:39:18.049Z,6.47
2023-02-27T04:42:03.533Z,5.67
2023-02-27T04:44:36.287Z,7.77
2023-02-27T04:47:07.666Z,4.90
2023-02-27T04:49:46.688Z,4.27
2023-02-27T04:52:25.729Z,6.27
2023-02-27T04:55:11.359Z,6.93
2023-02-27T04:57:48.442Z,8.13
2023-02-27T05:00:18.764Z,5.37
2023-02-27T05:02:52.463Z,7.10
2023-02-27T05:05:30.215Z,4.97
2023-02-27T05:08:37.901Z,8.03
2023-02-27T05:11:33.794Z,5.63
2023-02-27T05:14:21.807Z,10.37
2023-02-27T05:17:08.716Z,7.53
2023-02-27T05:19:41.295Z,7.03
2023-02-27T05:22:34.931Z,6.87
2023-02-27T05:25:37.788Z,6.40
2023-02-27T05:28:33.920Z,7.23
2023-02-27T05:31:21.099Z,14.07
2023-02-27T05:33:56.997Z,8.37
2023-02-27T05:36:57.693Z,9.80
2023-02-27T05:39:30.459Z,9.25
2023-02-27T05:42:14.129Z,9.20
2023-02-27T05:44:50.559Z,10.63
2023-02-27T05:47:23.689Z,11.03
2023-02-27T05:49:59.332Z,17.70
2023-02-27T05:52:28.369Z,13.23
2023-02-27T05:55:21.054Z,14.00
2023-02-27T05:58:07.447Z,8.70
2023-02-27T06:00:53.768Z,9.77
2023-02-27T06:03:21.908Z,14.63
2023-02-27T06:05:55.033Z,14.13
2023-02-27T06:08:23.011Z,18.37
2023-02-27T06:10:50.520Z,16.93
2023-02-27T06:13:18.580Z,10.53
2023-02-27T06:15:46.255Z,13.17
2023-02-27T06:18:15.300Z,22.70
2023-02-27T06:20:44.512Z,12.13
2023-02-27T06:23:12.648Z,15.40
2023-02-27T06:25:42.282Z,20.00
2023-02-27T06:28:10.757Z,13.57
2023-02-27T06:30:38.722Z,13.60
2023-02-27T06:33:05.984Z,11.17
2023-02-27T06:35:33.358Z,15.13
2023-02-27T06:38:00.588Z,14.20
2023-02-27T06:40:27.965Z,13.47
2023-02-27T06:42:55.168Z,14.90
2023-02-27T06:45:24.274Z,12.63
2023-02-27T06:47:51.563Z,16.80
2023-02-27T06:50:18.833Z,15.63
2023-02-27T06:52:46.118Z,14.57
2023-02-27T06:55:13.495Z,13.33
2023-02-27T06:57:40.714Z,18.00
2023-02-27T07:00:11.884Z,12.60
2023-02-27T07:02:39.770Z,14.93
2023-02-27T07:05:08.489Z,18.53
2023-02-27T07:07:37.958Z,16.13
2023-02-27T07:10:15.907Z,19.33
2023-02-27T07:12:43.198Z,15.87
2023-02-27T07:15:11.128Z,14.60
2023-02-27T07:17:38.422Z,24.63
2023-02-27T07:20:08.961Z,18.87
2023-02-27T07:22:37.689Z,15.68
2023-02-27T07:25:05.564Z,20.50
2023-02-27T07:27:32.957Z,19.33
2023-02-27T07:30:01.167Z,14.47
2023-02-27T07:32:28.800Z,18.33
2023-02-27T07:34:55.991Z,12.37
2023-02-27T07:37:23.241Z,13.30
2023-02-27T07:39:50.732Z,9.97
2023-02-27T07:42:18.102Z,16.50
2023-02-27T07:44:45.293Z,12.77
2023-02-27T07:47:12.775Z,11.47
2023-02-27T07:49:39.950Z,14.70
2023-02-27T07:52:08.410Z,7.90
2023-02-27T07:54:37.639Z,20.90
2023-02-27T07:57:05.958Z,7.17
2023-02-27T07:59:33.357Z,12.07
2023-02-27T08:02:00.625Z,11.53
2023-02-27T08:04:27.997Z,11.73
2023-02-27T08:06:55.270Z,11.77
2023-02-27T08:09:22.463Z,12.33
2023-02-27T08:11:49.738Z,9.93
2023-02-27T08:14:16.971Z,10.33
2023-02-27T08:16:44.154Z,17.67
2023-02-27T08:19:14.094Z,11.70
2023-02-27T08:21:41.775Z,10.02
2023-02-27T08:24:09.016Z,10.13
2023-02-27T08:26:36.661Z,10.97
2023-02-27T08:29:04.020Z,11.47
2023-02-27T08:31:31.408Z,14.50
2023-02-27T08:34:09.532Z,19.33
2023-02-27T08:36:38.264Z,16.40
2023-02-27T08:39:09.550Z,13.93
2023-02-27T08:41:37.109Z,13.10
2023-02-27T08:44:04.641Z,18.77
2023-02-27T08:46:32.164Z,12.00
2023-02-27T08:48:59.343Z,12.53
2023-02-27T08:51:26.920Z,8.67
2023-02-27T08:53:58.898Z,9.50
2023-02-27T08:56:27.517Z,13.97
2023-02-27T08:58:56.090Z,11.43
2023-02-27T09:01:24.033Z,11.30
2023-02-27T09:03:51.456Z,7.40
2023-02-27T09:06:18.609Z,12.60
2023-02-27T09:08:45.855Z,10.95
2023-02-27T09:11:13.175Z,8.65
2023-02-27T09:13:40.381Z,8.48
2023-02-27T09:16:07.994Z,8.38
2023-02-27T09:18:35.336Z,8.75
2023-02-27T09:21:03.466Z,25.85
2023-02-27T09:23:30.724Z,10.60
2023-02-27T09:25:57.913Z,10.63
2023-02-27T09:28:25.197Z,5.43
2023-02-27T09:30:52.904Z,9.07
2023-02-27T09:33:20.102Z,1.80
2023-02-27T09:35:47.400Z,3.50
2023-02-27T09:38:14.569Z,4.20
2023-02-27T09:40:44.716Z,2.63
2023-02-27T09:43:21.182Z,2.17
2023-02-27T09:45:54.838Z,4.25
2023-02-27T09:48:43.712Z,3.42
2023-02-27T09:51:11.042Z,6.90
2023-02-27T09:53:49.667Z,6.97
2023-02-27T09:56:42.440Z,3.90
2023-02-27T09:59:25.522Z,4.88
2023-02-27T10:02:09.191Z,4.03
2023-02-27T10:04:54.965Z,5.65
2023-02-27T10:08:01.003Z,3.58
2023-02-27T10:11:05.023Z,2.78
2023-02-27T10:14:02.315Z,2.70
2023-02-27T10:16:32.436Z,1.92
2023-02-27T10:19:10.850Z,2.67
2023-02-27T10:21:42.914Z,2.17
2023-02-27T10:24:27.518Z,1.88
2023-02-27T10:26:58.131Z,3.15
2023-02-27T10:29:36.977Z,4.85
2023-02-27T10:32:11.967Z,2.10
2023-02-27T10:34:42.353Z,2.58
2023-02-27T10:37:16.464Z,3.38
2023-02-27T10:39:49.931Z,4.03
2023-02-27T10:42:18.466Z,3.92
2023-02-27T10:44:46.309Z,4.60
2023-02-27T10:47:16.752Z,2.75
2023-02-27T10:49:44.567Z,2.10
2023-02-27T10:52:17.892Z,3.95
2023-02-27T10:54:47.082Z,2.35
2023-02-27T10:57:37.072Z,2.40
2023-02-27T11:00:23.361Z,4.53
2023-02-27T11:02:54.888Z,1.02
2023-02-27T11:05:31.112Z,2.58
2023-02-27T11:08:23.927Z,4.53
2023-02-27T11:11:27.652Z,3.42
2023-02-27T11:14:14.921Z,3.58
2023-02-27T11:16:55.890Z,2.20
2023-02-27T11:19:39.780Z,3.85
2023-02-27T11:22:08.373Z,4.63
2023-02-27T11:24:36.066Z,2.45
2023-02-27T11:27:29.523Z,5.00
2023-02-27T11:30:31.859Z,6.70
2023-02-27T11:33:01.659Z,5.93
2023-02-27T11:35:36.978Z,11.32
2023-02-27T11:38:18.815Z,6.93
2023-02-27T11:40:58.056Z,6.22
2023-02-27T11:43:33.338Z,7.43
2023-02-27T11:46:24.085Z,6.00
2023-02-27T11:49:14.571Z,5.63
2023-02-27T11:52:33.371Z,5.85
2023-02-27T11:55:03.978Z,5.53
2023-02-27T11:57:38.550Z,6.95
2023-02-27T12:00:33.675Z,7.32
2023-02-27T12:03:19.757Z,7.72
2023-02-27T12:05:53.754Z,4.70
2023-02-27T12:08:44.279Z,8.40
2023-02-27T12:11:29.923Z,7.47
2023-02-27T12:14:11.611Z,5.80
2023-02-27T12:16:46.560Z,2.50
2023-02-27T12:19:16.710Z,4.25
2023-02-27T12:21:54.210Z,3.20
2023-02-27T12:24:49.562Z,2.40
2023-02-27T12:27:44.151Z,4.00
2023-02-27T12:30:26.979Z,6.45
2023-02-27T12:33:25.209Z,5.18
2023-02-27T12:36:02.500Z,8.40
2023-02-27T12:38:30.195Z,4.68
2023-02-27T12:41:41.727Z,5.10
2023-02-27T12:44:14.818Z,4.65
2023-02-27T12:47:20.307Z,6.10
2023-02-27T12:50:15.904Z,5.90
2023-02-27T12:53:40.788Z,3.55
2023-02-27T12:56:17.877Z,3.15
2023-02-27T12:59:29.807Z,3.55
2023-02-27T13:02:37.532Z,2.90
2023-02-27T13:05:49.257Z,4.22
2023-02-27T13:08:59.944Z,6.28
2023-02-27T13:12:11.600Z,7.32
2023-02-27T13:15:06.268Z,4.90
2023-02-27T13:17:49.946Z,7.30
2023-02-27T13:20:25.768Z,5.57
2023-02-27T13:23:01.476Z,5.60
2023-02-27T13:25:30.802Z,4.68
2023-02-27T13:28:03.778Z,4.90
2023-02-27T13:30:41.445Z,4.93
2023-02-27T13:33:25.290Z,7.13
2023-02-27T13:36:19.112Z,5.40
2023-02-27T13:38:55.372Z,4.57
2023-02-27T13:41:25.631Z,4.75
2023-02-27T13:44:01.376Z,4.70
2023-02-27T13:46:33.891Z,5.43
2023-02-27T13:49:20.107Z,7.10
2023-02-27T13:51:56.814Z,3.45
2023-02-27T13:54:40.008Z,7.90
2023-02-27T13:57:24.378Z,3.22
2023-02-27T14:00:02.208Z,3.58
2023-02-27T14:02:59.389Z,4.55
2023-02-27T14:05:41.415Z,5.03
2023-02-27T14:08:25.922Z,3.92
2023-02-27T14:11:01.285Z,5.35
2023-02-27T14:13:50.341Z,7.10
2023-02-27T14:16:37.424Z,5.53
2023-02-27T14:19:24.453Z,4.72
2023-02-27T14:21:56.452Z,5.50
2023-02-27T14:24:49.625Z,8.52
2023-02-27T14:27:33.352Z,8.73
2023-02-27T14:30:11.602Z,7.65
2023-02-27T14:32:39.234Z,7.72
2023-02-27T14:35:07.525Z,9.10
2023-02-27T14:37:36.923Z,7.63
2023-02-27T14:40:06.448Z,5.20
2023-02-27T14:42:50.564Z,9.27
2023-02-27T14:45:25.521Z,5.33
2023-02-27T14:47:53.444Z,10.90
2023-02-27T14:50:35.183Z,12.38
2023-02-27T14:53:06.983Z,5.27
2023-02-27T14:55:36.853Z,8.80
2023-02-27T14:58:21.920Z,7.80
2023-02-27T15:00:58.731Z,8.70
2023-02-27T15:03:33.151Z,6.37
2023-02-27T15:06:04.100Z,8.67
2023-02-27T15:08:40.565Z,6.27
2023-02-27T15:11:14.189Z,15.60
2023-02-27T15:13:44.596Z,5.87
2023-02-27T15:16:23.876Z,7.28
2023-02-27T15:18:56.031Z,8.10
2023-02-27T15:21:27.044Z,6.10
2023-02-27T15:24:03.941Z,4.90
2023-02-27T15:26:40.614Z,6.70
2023-02-27T15:29:19.520Z,5.37
2023-02-27T15:31:46.957Z,6.20
2023-02-27T15:34:15.699Z,6.33
2023-02-27T15:36:57.477Z,16.03
2023-02-27T15:39:28.865Z,9.60
2023-02-27T15:42:03.429Z,17.40
2023-02-27T15:44:42.201Z,10.70
2023-02-27T15:47:18.574Z,6.87
2023-02-27T15:49:47.450Z,10.27
2023-02-27T15:52:23.010Z,7.43
2023-02-27T15:55:12.437Z,9.77
2023-02-27T15:57:40.921Z,11.90
2023-02-27T16:00:16.600Z,9.90
2023-02-27T16:02:52.913Z,11.47
2023-02-27T16:05:39.195Z,10.00
2023-02-27T16:08:07.355Z,13.77
2023-02-27T16:10:43.708Z,9.30
2023-02-27T16:13:37.208Z,10.40
2023-02-27T16:16:30.662Z,17.93
2023-02-27T16:19:03.471Z,10.93
2023-02-27T16:21:33.900Z,14.10
2023-02-27T16:24:22.036Z,9.57
2023-02-27T16:26:53.183Z,31.43
2023-02-27T16:29:23.833Z,13.03
2023-02-27T16:34:45.735Z,10.40
2023-02-27T16:37:39.739Z,21.60
2023-02-27T16:40:20.120Z,23.20
2023-02-27T16:42:48.577Z,11.95
2023-02-27T16:45:28.669Z,8.50
2023-02-27T16:47:59.662Z,8.85
2023-02-27T16:50:40.671Z,9.67
2023-02-27T16:53:09.005Z,12.17
2023-02-27T16:55:41.075Z,13.47
2023-02-27T16:58:15.662Z,10.43
2023-02-27T17:00:43.465Z,10.70
2023-02-27T17:03:10.937Z,13.90
2023-02-27T17:05:38.230Z,14.73
2023-02-27T17:08:05.797Z,9.03
2023-02-27T17:10:33.641Z,9.07
2023-02-27T17:13:00.829Z,10.33
2023-02-27T17:15:29.211Z,13.53
2023-02-27T17:17:56.520Z,16.90
2023-02-27T17:20:26.071Z,13.67
2023-02-27T17:22:53.313Z,12.57
2023-02-27T17:25:20.641Z,15.37
2023-02-27T17:27:48.008Z,11.73
2023-02-27T17:30:15.881Z,10.00
2023-02-27T17:32:43.425Z,14.20
2023-02-27T17:35:11.511Z,16.40
2023-02-27T17:37:39.087Z,14.63
2023-02-27T17:40:08.362Z,9.77
2023-02-27T17:42:39.521Z,10.30
2023-02-27T17:45:08.776Z,9.73
2023-02-27T17:47:36.325Z,15.50
2023-02-27T17:50:05.444Z,11.23
2023-02-27T17:52:35.341Z,11.00
2023-02-27T17:55:03.679Z,8.50
2023-02-27T17:57:31.042Z,11.13
2023-02-27T17:59:58.338Z,7.93
2023-02-27T18:02:25.746Z,13.40
2023-02-27T18:04:53.247Z,6.87
2023-02-27T18:07:20.570Z,9.57
2023-02-27T18:09:48.064Z,10.77
2023-02-27T18:12:15.390Z,15.30
2023-02-27T18:14:42.671Z,10.43
2023-02-27T18:17:12.687Z,16.07
2023-02-27T18:19:43.790Z,8.63
2023-02-27T18:22:15.193Z,10.33
2023-02-27T18:24:42.462Z,12.77
2023-02-27T18:27:09.863Z,13.23
2023-02-27T18:29:37.236Z,13.70
2023-02-27T18:32:07.205Z,24.33
2023-02-27T18:34:34.709Z,12.73
2023-02-27T18:37:01.953Z,14.37
2023-02-27T18:39:29.321Z,13.63
2023-02-27T18:41:56.568Z,16.80
2023-02-27T18:44:24.354Z,21.20
2023-02-27T18:46:52.034Z,11.93
2023-02-27T18:49:19.526Z,16.77
2023-02-27T18:51:46.838Z,18.30
2023-02-27T18:54:15.379Z,19.07
2023-02-27T18:56:42.706Z,18.77
2023-02-27T18:59:12.129Z,16.30
2023-02-27T19:01:39.570Z,21.40
2023-02-27T19:04:09.619Z,21.20
2023-02-27T19:06:42.303Z,22.52
2023-02-27T19:09:16.180Z,24.83
2023-02-27T19:11:46.888Z,18.73
2023-02-27T19:14:16.094Z,19.92
2023-02-27T19:16:44.302Z,22.73
2023-02-27T19:19:11.974Z,21.60
2023-02-27T19:21:39.735Z,20.57
2023-02-27T19:24:08.246Z,24.10
2023-02-27T19:26:36.086Z,19.87
2023-02-27T19:29:04.160Z,21.47
2023-02-27T19:31:31.978Z,22.17
2023-02-27T19:34:00.231Z,22.73
2023-02-27T19:36:30.604Z,26.80
2023-02-27T19:41:26.273Z,20.33
2023-02-27T19:43:55.936Z,24.97
2023-02-27T19:46:28.338Z,24.63
2023-02-27T19:49:01.016Z,27.70
2023-02-27T19:51:29.104Z,25.30
2023-02-27T19:53:56.963Z,18.03
2023-02-27T19:56:28.145Z,21.40
2023-02-27T19:58:56.263Z,17.57
2023-02-27T20:01:33.041Z,21.77
2023-02-27T20:04:02.139Z,22.10
2023-02-27T20:06:32.224Z,15.80
2023-02-27T20:09:00.446Z,17.90
2023-02-27T20:11:31.204Z,14.57
2023-02-27T20:16:29.003Z,22.97
2023-02-27T20:18:57.280Z,16.88
2023-02-27T20:21:27.084Z,21.13
2023-02-27T20:23:55.608Z,24.20
2023-02-27T20:26:30.171Z,15.23
2023-02-27T20:29:16.330Z,18.00
2023-02-27T20:31:46.486Z,13.53
2023-02-27T20:34:17.235Z,14.80
2023-02-27T20:36:44.738Z,17.70
2023-02-27T20:39:12.856Z,16.73
2023-02-27T20:41:40.458Z,13.33
2023-02-27T20:44:09.057Z,19.60
2023-02-27T20:46:38.235Z,19.20
2023-02-27T20:49:06.674Z,17.27
2023-02-27T20:51:38.978Z,15.93
2023-02-27T20:54:11.840Z,14.60
2023-02-27T20:56:41.607Z,20.70
2023-02-27T20:59:16.866Z,14.13
2023-02-27T21:01:51.445Z,17.53
2023-02-27T21:04:43.229Z,18.17
2023-02-27T21:07:13.549Z,15.97
2023-02-27T21:09:41.422Z,20.83
2023-02-27T21:12:09.625Z,17.93
2023-02-27T21:14:37.481Z,18.50
2023-02-27T21:17:06.139Z,19.67
2023-02-27T21:19:33.556Z,16.40
2023-02-27T21:22:00.970Z,19.43
2023-02-27T21:24:32.164Z,28.03
2023-02-27T21:27:00.190Z,23.00
2023-02-27T21:29:27.546Z,20.63
2023-02-27T21:31:55.199Z,16.03
2023-02-27T21:34:26.913Z,17.93
2023-02-27T21:36:55.624Z,17.97
2023-02-27T21:39:27.088Z,25.97
2023-02-27T21:41:55.172Z,16.43
2023-02-27T21:44:26.477Z,21.70
2023-02-27T21:46:54.510Z,17.37
2023-02-27T21:49:28.305Z,21.43
2023-02-27T21:51:56.143Z,17.00
2023-02-27T21:54:23.859Z,19.30
2023-02-27T21:56:51.269Z,19.97
2023-02-27T21:59:19.413Z,17.87
2023-02-27T22:01:48.339Z,16.00
2023-02-27T22:04:19.217Z,17.17
2023-02-27T22:09:15.156Z,19.27
2023-02-27T22:11:42.778Z,20.87
2023-02-27T22:14:11.922Z,18.00
2023-02-27T22:16:39.863Z,16.77
2023-02-27T22:19:13.860Z,17.43
2023-02-27T22:21:41.611Z,17.13
2023-02-27T22:24:09.160Z,16.47
2023-02-27T22:26:37.470Z,21.30
2023-02-27T22:29:06.873Z,18.47
2023-02-27T22:31:37.915Z,18.93
2023-02-27T22:34:12.394Z,18.97
2023-02-27T22:36:41.730Z,15.97
2023-02-27T22:39:09.159Z,21.30
2023-02-27T22:41:40.215Z,18.73
2023-02-27T22:44:12.341Z,21.83
2023-02-27T22:46:44.424Z,24.60
2023-02-27T22:49:16.128Z,22.07
2023-02-27T22:51:44.449Z,27.63
2023-02-27T22:54:14.891Z,19.50
2023-02-27T22:56:43.441Z,21.58
2023-02-27T22:59:11.352Z,26.40
2023-02-27T23:01:38.985Z,19.47
2023-02-27T23:04:09.051Z,19.93
2023-02-27T23:06:39.873Z,22.42
2023-02-27T23:11:36.839Z,22.53
2023-02-27T23:14:04.697Z,21.23
2023-02-27T23:16:32.219Z,18.03
2023-02-27T23:19:00.919Z,23.23
2023-02-27T23:21:35.110Z,21.00
2023-02-27T23:24:08.754Z,21.93
2023-02-27T23:26:42.320Z,21.80
2023-02-27T23:29:10.398Z,20.97
2023-02-27T23:31:38.449Z,20.57
2023-02-27T23:34:07.026Z,26.00
2023-02-27T23:36:36.459Z,25.03
2023-02-27T23:39:05.697Z,22.10
2023-02-27T23:41:34.196Z,25.00
2023-02-27T23:44:01.929Z,24.37
2023-02-27T23:46:30.681Z,27.57
2023-02-27T23:49:02.051Z,25.23
2023-02-27T23:51:30.899Z,23.73
2023-02-27T23:53:59.258Z,24.90
2023-02-27T23:56:29.811Z,25.40
2023-02-27T23:59:01.539Z,21.70
